createdAt,value
2023-03-26T00:00:58.596Z,0
2023-03-26T00:02:42.296Z,0
2023-03-26T00:04:26.019Z,1
2023-03-26T00:06:09.716Z,1
2023-03-26T00:07:53.425Z,0
2023-03-26T00:09:37.102Z,0
2023-03-26T00:11:20.855Z,0
2023-03-26T00:13:04.510Z,0
2023-03-26T00:14:48.200Z,0
2023-03-26T00:16:31.909Z,0
2023-03-26T00:18:15.675Z,0
2023-03-26T00:19:59.311Z,0
2023-03-26T00:21:43.079Z,0
2023-03-26T00:23:26.705Z,0
2023-03-26T00:25:10.459Z,0
2023-03-26T00:26:54.207Z,0
2023-03-26T00:28:37.814Z,0
2023-03-26T00:30:21.569Z,0
2023-03-26T00:32:05.219Z,0
2023-03-26T00:33:49.020Z,0
2023-03-26T00:35:32.675Z,0
2023-03-26T00:37:16.308Z,0
2023-03-26T00:39:00.163Z,0
2023-03-26T00:40:43.730Z,0
2023-03-26T00:42:27.428Z,0
2023-03-26T00:44:11.107Z,0
2023-03-26T00:45:54.833Z,0
2023-03-26T00:47:38.542Z,0
2023-03-26T00:49:22.370Z,0
2023-03-26T00:51:05.955Z,0
2023-03-26T00:52:49.642Z,0
2023-03-26T00:54:33.356Z,0
2023-03-26T00:56:17.061Z,0
2023-03-26T00:58:00.725Z,1
2023-03-26T00:59:44.488Z,0
2023-03-26T01:01:28.141Z,0
2023-03-26T01:03:11.889Z,0
2023-03-26T01:04:55.539Z,0
2023-03-26T01:06:39.310Z,0
2023-03-26T01:08:22.956Z,0
2023-03-26T01:10:06.800Z,0
2023-03-26T01:11:50.437Z,0
2023-03-26T01:13:34.047Z,0
2023-03-26T01:15:17.808Z,0
2023-03-26T01:17:01.653Z,0
2023-03-26T01:18:45.287Z,0
2023-03-26T01:20:28.967Z,0
2023-03-26T01:22:12.659Z,0
2023-03-26T01:23:56.365Z,0
2023-03-26T01:25:40.053Z,0
2023-03-26T01:27:23.757Z,0
2023-03-26T01:29:07.394Z,0
2023-03-26T01:30:51.120Z,0
2023-03-26T01:32:34.792Z,0
2023-03-26T01:34:18.517Z,0
2023-03-26T01:36:02.192Z,0
2023-03-26T01:37:45.890Z,0
2023-03-26T01:39:29.721Z,0
2023-03-26T01:41:13.302Z,0
2023-03-26T01:42:57.113Z,0
2023-03-26T01:44:40.708Z,1
2023-03-26T01:46:24.446Z,0
2023-03-26T01:48:08.189Z,0
2023-03-26T01:49:51.938Z,0
2023-03-26T01:51:35.512Z,0
2023-03-26T01:53:19.285Z,0
2023-03-26T01:55:02.955Z,0
2023-03-26T01:56:46.632Z,0
2023-03-26T01:58:30.337Z,0
2023-03-26T02:00:14.013Z,0
2023-03-26T02:01:57.736Z,0
2023-03-26T02:03:41.428Z,0
2023-03-26T02:05:25.143Z,0
2023-03-26T02:07:08.847Z,0
2023-03-26T02:08:52.544Z,0
2023-03-26T02:10:36.308Z,0
2023-03-26T02:12:19.934Z,0
2023-03-26T02:14:03.642Z,0
2023-03-26T02:15:47.387Z,0
2023-03-26T02:17:31.070Z,0
2023-03-26T02:19:14.758Z,0
2023-03-26T02:20:58.437Z,0
2023-03-26T02:22:42.156Z,0
2023-03-26T02:24:25.857Z,0
2023-03-26T02:26:09.561Z,0
2023-03-26T02:27:53.235Z,0
2023-03-26T02:29:36.951Z,0
2023-03-26T02:31:20.654Z,0
2023-03-26T02:33:04.351Z,0
2023-03-26T02:34:48.056Z,0
2023-03-26T02:36:31.806Z,0
2023-03-26T02:38:15.458Z,0
2023-03-26T02:39:59.155Z,0
2023-03-26T02:41:42.857Z,0
2023-03-26T02:43:26.590Z,0
2023-03-26T02:45:10.307Z,0
2023-03-26T02:46:54.000Z,0
2023-03-26T02:48:37.654Z,1
2023-03-26T02:50:21.348Z,0
2023-03-26T02:52:05.063Z,0
2023-03-26T02:53:48.761Z,0
2023-03-26T02:55:32.452Z,0
2023-03-26T02:57:16.160Z,0
2023-03-26T02:58:59.873Z,0
2023-03-26T03:00:43.571Z,0
2023-03-26T03:02:27.276Z,0
2023-03-26T03:04:10.965Z,0
2023-03-26T03:05:54.724Z,0
2023-03-26T03:07:38.374Z,0
2023-03-26T03:09:22.096Z,0
2023-03-26T03:11:05.814Z,0
2023-03-26T03:12:49.494Z,0
2023-03-26T03:14:33.187Z,0
2023-03-26T03:16:16.903Z,0
2023-03-26T03:18:00.589Z,0
2023-03-26T03:19:44.272Z,0
2023-03-26T03:21:27.999Z,0
2023-03-26T03:23:11.698Z,0
2023-03-26T03:24:55.389Z,0
2023-03-26T03:26:39.118Z,0
2023-03-26T03:28:22.792Z,0
2023-03-26T03:30:06.515Z,0
2023-03-26T03:31:50.184Z,0
2023-03-26T03:33:33.936Z,0
2023-03-26T03:35:17.611Z,0
2023-03-26T03:37:01.350Z,0
2023-03-26T03:38:45.007Z,0
2023-03-26T03:40:28.707Z,1
2023-03-26T03:42:12.413Z,0
2023-03-26T03:43:56.137Z,0
2023-03-26T03:45:39.791Z,0
2023-03-26T03:47:23.503Z,0
2023-03-26T03:49:07.223Z,0
2023-03-26T03:50:50.922Z,0
2023-03-26T03:52:34.596Z,0
2023-03-26T03:54:18.310Z,0
2023-03-26T03:56:02.029Z,0
2023-03-26T03:57:45.716Z,0
2023-03-26T03:59:29.465Z,0
2023-03-26T04:01:13.312Z,0
2023-03-26T04:02:56.812Z,0
2023-03-26T04:04:40.521Z,0
2023-03-26T04:06:24.237Z,0
2023-03-26T04:08:07.940Z,0
2023-03-26T04:09:51.631Z,0
2023-03-26T04:11:35.361Z,0
2023-03-26T04:13:19.020Z,0
2023-03-26T04:15:02.715Z,0
2023-03-26T04:16:46.439Z,0
2023-03-26T04:18:30.131Z,0
2023-03-26T04:20:13.837Z,0
2023-03-26T04:21:57.528Z,0
2023-03-26T04:23:41.250Z,0
2023-03-26T04:25:24.991Z,0
2023-03-26T04:27:08.643Z,0
2023-03-26T04:28:52.342Z,0
2023-03-26T04:30:36.046Z,0
2023-03-26T04:32:19.765Z,0
2023-03-26T04:34:03.469Z,0
2023-03-26T04:35:47.156Z,0
2023-03-26T04:37:30.860Z,0
2023-03-26T04:39:14.562Z,0
2023-03-26T04:40:58.267Z,0
2023-03-26T04:42:41.993Z,0
2023-03-26T04:44:25.682Z,0
2023-03-26T04:46:09.377Z,0
2023-03-26T04:47:53.075Z,0
2023-03-26T04:49:36.781Z,0
2023-03-26T04:51:20.488Z,0
2023-03-26T04:53:04.189Z,0
2023-03-26T04:54:47.944Z,0
2023-03-26T04:56:31.599Z,0
2023-03-26T04:58:15.303Z,0
2023-03-26T04:59:58.991Z,0
2023-03-26T05:01:42.710Z,0
2023-03-26T05:03:26.423Z,0
2023-03-26T05:05:10.094Z,0
2023-03-26T05:06:53.827Z,0
2023-03-26T05:08:37.506Z,1
2023-03-26T05:10:21.253Z,1
2023-03-26T05:12:04.902Z,1
2023-03-26T05:13:48.605Z,2
2023-03-26T05:15:32.336Z,2
2023-03-26T05:17:16.010Z,1
2023-03-26T05:18:59.721Z,2
2023-03-26T05:20:43.420Z,2
2023-03-26T05:22:27.130Z,3
2023-03-26T05:24:10.825Z,2
2023-03-26T05:25:54.532Z,2
2023-03-26T05:27:38.249Z,3
2023-03-26T05:29:21.924Z,3
2023-03-26T05:31:05.637Z,4
2023-03-26T05:32:49.348Z,5
2023-03-26T05:34:33.083Z,7
2023-03-26T05:36:16.791Z,8
2023-03-26T05:38:00.445Z,9
2023-03-26T05:39:44.155Z,12
2023-03-26T05:41:27.899Z,13
2023-03-26T05:43:11.554Z,17
2023-03-26T05:44:55.236Z,21
2023-03-26T05:46:38.946Z,27
2023-03-26T05:48:22.665Z,31
2023-03-26T05:50:06.354Z,33
2023-03-26T05:51:50.060Z,31
2023-03-26T05:53:33.747Z,29
2023-03-26T05:55:17.451Z,27
2023-03-26T05:57:01.144Z,25
2023-03-26T05:58:44.847Z,26
2023-03-26T06:00:28.595Z,27
2023-03-26T06:02:12.320Z,28
2023-03-26T06:03:55.952Z,27
2023-03-26T06:05:39.651Z,25
2023-03-26T06:07:23.354Z,20
2023-03-26T06:09:07.048Z,19
2023-03-26T06:10:50.740Z,19
2023-03-26T06:12:34.467Z,19
2023-03-26T06:14:18.228Z,18
2023-03-26T06:16:01.875Z,20
2023-03-26T06:17:45.570Z,20
2023-03-26T06:19:29.259Z,18
2023-03-26T06:21:12.965Z,17
2023-03-26T06:22:56.694Z,18
2023-03-26T06:24:40.360Z,20
2023-03-26T06:26:24.064Z,23
2023-03-26T06:28:07.778Z,25
2023-03-26T06:29:51.470Z,295
2023-03-26T06:31:35.220Z,324
2023-03-26T06:33:18.876Z,330
2023-03-26T06:35:02.573Z,359
2023-03-26T06:36:46.296Z,380
2023-03-26T06:38:29.982Z,381
2023-03-26T06:40:13.749Z,396
2023-03-26T06:41:57.389Z,454
2023-03-26T06:43:41.110Z,505
2023-03-26T06:45:24.790Z,587
2023-03-26T06:47:08.508Z,659
2023-03-26T06:48:52.205Z,657
2023-03-26T06:50:35.914Z,715
2023-03-26T06:52:19.624Z,775
2023-03-26T06:54:03.323Z,776
2023-03-26T06:55:47.034Z,775
2023-03-26T06:57:30.711Z,750
2023-03-26T06:59:14.425Z,713
2023-03-26T07:00:58.129Z,755
2023-03-26T07:02:41.849Z,776
2023-03-26T07:04:25.557Z,776
2023-03-26T07:06:09.377Z,745
2023-03-26T07:07:52.928Z,660
2023-03-26T07:09:36.784Z,595
2023-03-26T07:11:20.321Z,657
2023-03-26T07:13:04.071Z,679
2023-03-26T07:14:47.798Z,667
2023-03-26T07:16:31.441Z,695
2023-03-26T07:18:15.140Z,740
2023-03-26T07:19:58.892Z,776
2023-03-26T07:21:42.636Z,776
2023-03-26T07:23:26.256Z,776
2023-03-26T07:25:09.940Z,775
2023-03-26T07:26:53.750Z,775
2023-03-26T07:28:37.348Z,776
2023-03-26T07:30:21.123Z,775
2023-03-26T07:32:04.742Z,776
2023-03-26T07:33:48.446Z,776
2023-03-26T07:35:32.258Z,776
2023-03-26T07:38:59.544Z,775
2023-03-26T07:40:43.260Z,776
2023-03-26T07:42:26.950Z,775
2023-03-26T07:44:10.650Z,776
2023-03-26T07:45:54.413Z,776
2023-03-26T07:47:38.096Z,777
2023-03-26T07:49:21.801Z,775
2023-03-26T07:51:05.445Z,775
2023-03-26T07:52:49.150Z,776
2023-03-26T07:54:32.921Z,775
2023-03-26T07:56:16.561Z,684
2023-03-26T07:59:43.948Z,707
2023-03-26T08:01:27.668Z,775
2023-03-26T08:04:55.072Z,776
2023-03-26T08:06:38.763Z,777
2023-03-26T08:08:22.451Z,776
2023-03-26T08:10:06.178Z,776
2023-03-26T08:11:49.873Z,776
2023-03-26T08:13:33.562Z,776
2023-03-26T08:15:17.250Z,776
2023-03-26T08:17:00.974Z,776
2023-03-26T08:18:44.683Z,775
2023-03-26T08:20:28.460Z,775
2023-03-26T08:22:12.050Z,776
2023-03-26T08:23:55.756Z,777
2023-03-26T08:25:39.487Z,776
2023-03-26T08:27:23.243Z,776
2023-03-26T08:29:06.860Z,737
2023-03-26T08:30:50.660Z,776
2023-03-26T08:32:34.274Z,777
2023-03-26T08:34:18.085Z,776
2023-03-26T08:36:01.777Z,705
2023-03-26T08:37:45.397Z,776
2023-03-26T08:39:29.076Z,776
2023-03-26T08:41:12.784Z,776
2023-03-26T08:42:56.545Z,776
2023-03-26T08:44:40.250Z,776
2023-03-26T08:46:23.876Z,776
2023-03-26T08:48:07.640Z,776
2023-03-26T08:49:51.310Z,776
2023-03-26T08:51:34.978Z,776
2023-03-26T08:53:18.698Z,776
2023-03-26T08:55:02.380Z,775
2023-03-26T08:56:46.098Z,775
2023-03-26T08:58:29.790Z,776
2023-03-26T09:00:13.531Z,776
2023-03-26T09:01:57.189Z,775
2023-03-26T09:03:41.033Z,776
2023-03-26T09:05:24.704Z,775
2023-03-26T09:07:08.405Z,776
2023-03-26T09:08:52.019Z,776
2023-03-26T09:10:35.726Z,776
2023-03-26T09:12:19.418Z,776
2023-03-26T09:14:03.246Z,776
2023-03-26T09:15:46.855Z,776
2023-03-26T09:17:30.579Z,776
2023-03-26T09:19:14.273Z,777
2023-03-26T09:20:57.961Z,776
2023-03-26T09:22:41.637Z,777
2023-03-26T09:24:25.385Z,777
2023-03-26T09:26:09.057Z,776
2023-03-26T09:27:52.745Z,776
2023-03-26T09:29:36.433Z,777
2023-03-26T09:31:20.164Z,777
2023-03-26T09:33:03.855Z,777
2023-03-26T09:34:47.557Z,777
2023-03-26T09:36:31.250Z,776
2023-03-26T09:38:14.961Z,777
2023-03-26T09:39:58.666Z,776
2023-03-26T09:41:42.402Z,777
2023-03-26T09:43:26.047Z,777
2023-03-26T09:45:09.777Z,777
2023-03-26T09:46:53.457Z,778
2023-03-26T09:48:37.177Z,777
2023-03-26T09:50:20.845Z,777
2023-03-26T09:52:04.586Z,778
2023-03-26T09:53:48.255Z,777
2023-03-26T09:55:31.977Z,777
2023-03-26T09:57:15.858Z,777
2023-03-26T09:58:59.379Z,777
2023-03-26T10:02:26.800Z,776
2023-03-26T10:04:10.706Z,778
2023-03-26T10:05:54.251Z,778
2023-03-26T10:07:37.981Z,777
2023-03-26T10:09:21.762Z,775
2023-03-26T10:11:05.556Z,778
2023-03-26T10:12:49.091Z,777
2023-03-26T10:14:32.750Z,778
2023-03-26T10:18:00.123Z,778
2023-03-26T10:19:43.799Z,777
2023-03-26T10:21:27.534Z,778
2023-03-26T10:24:54.924Z,778
2023-03-26T10:26:38.630Z,778
2023-03-26T10:28:22.344Z,778
2023-03-26T10:30:06.019Z,778
2023-03-26T10:31:49.714Z,778
2023-03-26T10:33:33.418Z,778
2023-03-26T10:35:17.136Z,778
2023-03-26T10:37:00.820Z,778
2023-03-26T10:38:44.515Z,778
2023-03-26T10:40:28.227Z,778
2023-03-26T10:42:11.938Z,778
2023-03-26T10:43:55.630Z,778
2023-03-26T10:45:39.398Z,778
2023-03-26T10:47:23.062Z,778
2023-03-26T10:49:06.795Z,777
2023-03-26T10:50:50.440Z,777
2023-03-26T10:52:34.157Z,778
2023-03-26T10:54:17.856Z,777
2023-03-26T10:56:01.561Z,778
2023-03-26T10:57:45.261Z,777
2023-03-26T10:59:28.966Z,777
2023-03-26T11:01:12.659Z,778
2023-03-26T11:02:56.378Z,778
2023-03-26T11:04:40.061Z,774
2023-03-26T11:06:23.760Z,778
2023-03-26T11:08:07.511Z,778
2023-03-26T11:09:51.190Z,775
2023-03-26T11:11:34.857Z,778
2023-03-26T11:13:18.582Z,778
2023-03-26T11:15:02.281Z,779
2023-03-26T11:16:45.996Z,778
2023-03-26T11:18:29.756Z,778
2023-03-26T11:20:13.507Z,778
2023-03-26T11:21:57.147Z,778
2023-03-26T11:23:40.827Z,778
2023-03-26T11:25:24.495Z,779
2023-03-26T11:27:08.218Z,778
2023-03-26T11:28:51.993Z,778
2023-03-26T11:30:35.770Z,778
2023-03-26T11:32:19.484Z,779
2023-03-26T11:34:03.064Z,779
2023-03-26T11:35:46.746Z,779
2023-03-26T11:37:30.388Z,779
2023-03-26T11:39:14.099Z,780
2023-03-26T11:40:57.988Z,779
2023-03-26T11:42:41.516Z,779
2023-03-26T11:44:25.210Z,779
2023-03-26T11:46:08.912Z,779
2023-03-26T11:47:52.623Z,779
2023-03-26T11:49:36.298Z,778
2023-03-26T11:51:20.051Z,778
2023-03-26T11:53:03.716Z,778
2023-03-26T11:54:47.429Z,779
2023-03-26T11:56:31.111Z,778
2023-03-26T11:58:14.801Z,779
2023-03-26T11:59:58.532Z,779
2023-03-26T12:01:42.221Z,780
2023-03-26T12:03:25.928Z,779
2023-03-26T12:05:09.608Z,779
2023-03-26T12:06:53.393Z,779
2023-03-26T12:08:37.013Z,779
2023-03-26T12:10:20.716Z,779
2023-03-26T12:12:04.418Z,780
2023-03-26T12:13:48.127Z,779
2023-03-26T12:15:31.934Z,778
2023-03-26T12:17:15.515Z,779
2023-03-26T12:18:59.227Z,779
2023-03-26T12:20:42.930Z,780
2023-03-26T12:22:26.641Z,780
2023-03-26T12:24:10.338Z,779
2023-03-26T12:25:54.052Z,779
2023-03-26T12:27:37.771Z,779
2023-03-26T12:29:21.442Z,779
2023-03-26T12:31:05.153Z,779
2023-03-26T12:32:48.921Z,778
2023-03-26T12:34:32.559Z,778
2023-03-26T12:36:16.238Z,778
2023-03-26T12:38:00.077Z,779
2023-03-26T12:39:43.683Z,778
2023-03-26T12:41:27.361Z,778
2023-03-26T12:43:51.387Z,778
2023-03-26T12:44:54.942Z,778
2023-03-26T12:46:38.440Z,779
2023-03-26T12:48:22.166Z,777
2023-03-26T12:50:05.865Z,779
2023-03-26T12:51:49.578Z,779
2023-03-26T12:53:33.250Z,778
2023-03-26T12:55:16.952Z,779
2023-03-26T12:57:00.663Z,778
2023-03-26T12:58:44.575Z,779
2023-03-26T13:00:28.184Z,779
2023-03-26T13:02:11.897Z,778
2023-03-26T13:03:55.465Z,778
2023-03-26T13:05:39.182Z,778
2023-03-26T13:07:22.920Z,779
2023-03-26T13:09:06.574Z,779
2023-03-26T13:10:50.473Z,778
2023-03-26T13:12:33.997Z,779
2023-03-26T13:14:17.682Z,778
2023-03-26T13:16:01.375Z,778
2023-03-26T13:17:45.075Z,778
2023-03-26T13:19:28.836Z,778
2023-03-26T13:21:12.527Z,778
2023-03-26T13:22:56.228Z,779
2023-03-26T13:24:39.925Z,778
2023-03-26T13:26:23.650Z,778
2023-03-26T13:28:07.313Z,778
2023-03-26T13:29:51.045Z,778
2023-03-26T13:31:34.723Z,778
2023-03-26T13:33:18.476Z,778
2023-03-26T13:35:02.123Z,777
2023-03-26T13:36:45.827Z,779
2023-03-26T13:38:29.494Z,778
2023-03-26T13:40:13.258Z,779
2023-03-26T13:41:56.904Z,778
2023-03-26T13:43:40.598Z,778
2023-03-26T13:45:24.326Z,778
2023-03-26T13:47:08.036Z,778
2023-03-26T13:48:51.712Z,778
2023-03-26T13:50:35.413Z,778
2023-03-26T13:52:19.148Z,778
2023-03-26T13:54:02.812Z,778
2023-03-26T13:55:46.494Z,779
2023-03-26T13:57:30.210Z,778
2023-03-26T13:59:13.912Z,777
2023-03-26T14:00:57.629Z,778
2023-03-26T14:02:41.328Z,777
2023-03-26T14:04:25.019Z,778
2023-03-26T14:06:08.732Z,778
2023-03-26T14:07:52.416Z,779
2023-03-26T14:09:36.135Z,778
2023-03-26T14:11:19.837Z,779
2023-03-26T14:13:03.533Z,778
2023-03-26T14:14:47.282Z,778
2023-03-26T14:16:30.973Z,778
2023-03-26T14:18:14.712Z,778
2023-03-26T14:19:58.351Z,778
2023-03-26T14:21:42.114Z,778
2023-03-26T14:23:25.802Z,778
2023-03-26T14:25:09.536Z,778
2023-03-26T14:26:53.198Z,779
2023-03-26T14:28:36.829Z,776
2023-03-26T14:30:20.535Z,779
2023-03-26T14:32:04.229Z,778
2023-03-26T14:33:47.927Z,778
2023-03-26T14:35:31.719Z,778
2023-03-26T14:37:15.348Z,778
2023-03-26T14:38:59.066Z,778
2023-03-26T14:40:42.740Z,778
2023-03-26T14:42:26.452Z,778
2023-03-26T14:44:10.162Z,778
2023-03-26T14:45:53.842Z,778
2023-03-26T14:47:37.553Z,770
2023-03-26T14:49:21.251Z,710
2023-03-26T14:51:04.971Z,618
2023-03-26T14:52:48.672Z,568
2023-03-26T14:54:32.364Z,473
2023-03-26T14:56:16.070Z,358
2023-03-26T14:57:59.777Z,279
2023-03-26T14:59:43.493Z,777
2023-03-26T15:03:10.871Z,778
2023-03-26T15:04:54.600Z,777
2023-03-26T15:06:38.301Z,777
2023-03-26T15:08:22.000Z,778
2023-03-26T15:10:05.671Z,777
2023-03-26T15:11:49.402Z,777
2023-03-26T15:13:33.107Z,776
2023-03-26T15:15:16.785Z,778
2023-03-26T15:17:00.494Z,777
2023-03-26T15:18:44.216Z,777
2023-03-26T15:20:27.907Z,778
2023-03-26T15:22:11.616Z,778
2023-03-26T15:23:55.415Z,777
2023-03-26T15:25:39.035Z,778
2023-03-26T15:27:22.752Z,776
2023-03-26T15:29:06.440Z,777
2023-03-26T15:30:50.152Z,777
2023-03-26T15:32:33.818Z,777
2023-03-26T15:34:17.542Z,776
2023-03-26T15:36:01.277Z,777
2023-03-26T15:37:44.943Z,777
2023-03-26T15:39:28.657Z,777
2023-03-26T15:41:12.344Z,778
2023-03-26T15:42:56.054Z,778
2023-03-26T15:44:39.774Z,777
2023-03-26T15:46:23.473Z,778
2023-03-26T15:48:07.139Z,777
2023-03-26T15:49:50.879Z,777
2023-03-26T15:51:34.571Z,777
2023-03-26T15:53:22.347Z,777
2023-03-26T15:55:06.051Z,777
2023-03-26T15:56:49.750Z,777
2023-03-26T15:58:33.442Z,778
2023-03-26T16:00:17.180Z,777
2023-03-26T16:02:00.874Z,778
2023-03-26T16:03:44.574Z,777
2023-03-26T16:05:28.294Z,776
2023-03-26T16:07:11.977Z,777
2023-03-26T16:08:55.685Z,777
2023-03-26T16:10:39.398Z,777
2023-03-26T16:12:23.062Z,776
2023-03-26T16:14:06.771Z,777
2023-03-26T16:15:50.482Z,777
2023-03-26T16:17:34.198Z,776
2023-03-26T16:19:17.890Z,776
2023-03-26T16:21:01.591Z,777
2023-03-26T16:22:45.294Z,777
2023-03-26T16:24:29.096Z,776
2023-03-26T16:26:12.709Z,777
2023-03-26T16:27:56.407Z,776
2023-03-26T16:29:40.086Z,777
2023-03-26T16:31:23.811Z,777
2023-03-26T16:33:07.503Z,687
2023-03-26T16:34:51.216Z,679
2023-03-26T16:36:34.929Z,693
2023-03-26T16:38:18.637Z,697
2023-03-26T16:40:02.334Z,688
2023-03-26T16:41:46.020Z,687
2023-03-26T16:43:29.722Z,717
2023-03-26T16:45:13.412Z,774
2023-03-26T16:46:57.124Z,756
2023-03-26T16:48:40.828Z,676
2023-03-26T16:50:24.509Z,564
2023-03-26T16:52:08.228Z,453
2023-03-26T16:53:51.942Z,380
2023-03-26T16:55:35.649Z,328
2023-03-26T16:57:19.393Z,281
2023-03-26T16:59:03.061Z,221
2023-03-26T17:00:46.793Z,170
2023-03-26T17:02:30.454Z,136
2023-03-26T17:04:14.150Z,116
2023-03-26T17:05:57.837Z,109
2023-03-26T17:07:41.558Z,103
2023-03-26T17:09:25.265Z,96
2023-03-26T17:11:08.978Z,86
2023-03-26T17:12:52.649Z,78
2023-03-26T17:14:36.355Z,74
2023-03-26T17:16:20.066Z,70
2023-03-26T17:18:03.758Z,64
2023-03-26T17:19:47.464Z,62
2023-03-26T17:21:31.169Z,62
2023-03-26T17:23:14.865Z,63
2023-03-26T17:24:58.603Z,59
2023-03-26T17:26:42.301Z,54
2023-03-26T17:28:25.992Z,51
2023-03-26T17:30:09.662Z,45
2023-03-26T17:31:53.374Z,37
2023-03-26T17:33:37.071Z,33
2023-03-26T17:35:20.791Z,27
2023-03-26T17:37:04.481Z,23
2023-03-26T17:38:48.185Z,22
2023-03-26T17:40:31.892Z,19
2023-03-26T17:42:15.619Z,18
2023-03-26T17:43:59.299Z,17
2023-03-26T17:45:43.003Z,14
2023-03-26T17:47:26.704Z,36
2023-03-26T17:49:10.399Z,35
2023-03-26T17:50:54.128Z,35
2023-03-26T17:52:37.816Z,33
2023-03-26T17:54:21.525Z,33
2023-03-26T17:56:05.399Z,34
2023-03-26T17:57:48.936Z,5
2023-03-26T17:59:32.619Z,5
2023-03-26T18:01:16.336Z,4
2023-03-26T18:03:00.050Z,4
2023-03-26T18:04:43.776Z,3
2023-03-26T18:06:27.424Z,3
2023-03-26T18:08:11.130Z,72
2023-03-26T18:09:54.829Z,1
2023-03-26T18:11:38.530Z,2
2023-03-26T18:13:22.229Z,3
2023-03-26T18:15:05.936Z,4
2023-03-26T18:16:49.632Z,4
2023-03-26T18:18:33.347Z,5
2023-03-26T18:20:17.020Z,4
2023-03-26T18:22:00.750Z,4
2023-03-26T18:23:44.464Z,3
2023-03-26T18:25:28.146Z,2
2023-03-26T18:27:11.841Z,3
2023-03-26T18:28:55.543Z,2
2023-03-26T18:30:39.262Z,3
2023-03-26T18:32:22.953Z,2
2023-03-26T18:34:06.653Z,3
2023-03-26T18:35:50.366Z,3
2023-03-26T18:37:34.060Z,3
2023-03-26T18:39:17.764Z,3
2023-03-26T18:41:01.454Z,3
2023-03-26T18:42:45.164Z,2
2023-03-26T18:44:28.868Z,3
2023-03-26T18:46:12.593Z,3
2023-03-26T18:47:56.266Z,3
2023-03-26T18:49:39.970Z,3
2023-03-26T18:51:23.681Z,3
2023-03-26T18:53:07.369Z,2
2023-03-26T18:54:51.059Z,3
2023-03-26T18:56:34.779Z,3
2023-03-26T18:58:18.473Z,2
2023-03-26T19:00:02.179Z,3
2023-03-26T19:01:45.936Z,3
2023-03-26T19:03:29.589Z,3
2023-03-26T19:05:13.298Z,3
2023-03-26T19:06:56.992Z,3
2023-03-26T19:08:40.736Z,3
2023-03-26T19:10:24.396Z,3
2023-03-26T19:12:08.092Z,3
2023-03-26T19:13:51.938Z,3
2023-03-26T19:15:35.495Z,3
2023-03-26T19:17:19.195Z,3
2023-03-26T19:19:02.895Z,3
2023-03-26T19:20:46.638Z,2
2023-03-26T19:22:30.314Z,3
2023-03-26T19:24:14.004Z,3
2023-03-26T19:25:57.695Z,3
2023-03-26T19:27:41.394Z,3
2023-03-26T19:29:25.099Z,3
2023-03-26T19:31:08.828Z,2
2023-03-26T19:32:52.525Z,3
2023-03-26T19:34:36.215Z,4
2023-03-26T19:36:19.922Z,3
2023-03-26T19:38:03.627Z,3
2023-03-26T19:39:47.311Z,3
2023-03-26T19:41:31.234Z,3
2023-03-26T19:43:14.917Z,3
2023-03-26T19:44:58.582Z,3
2023-03-26T19:46:42.293Z,2
2023-03-26T19:48:25.933Z,3
2023-03-26T19:50:09.738Z,3
2023-03-26T19:51:53.383Z,3
2023-03-26T19:53:37.088Z,3
2023-03-26T19:55:20.809Z,3
2023-03-26T19:57:04.423Z,3
2023-03-26T19:58:48.255Z,3
2023-03-26T20:00:31.751Z,3
2023-03-26T20:02:15.539Z,3
2023-03-26T20:03:59.376Z,3
2023-03-26T20:05:43.057Z,3
2023-03-26T20:07:26.679Z,3
2023-03-26T20:09:10.399Z,2
2023-03-26T20:10:53.966Z,2
2023-03-26T20:12:37.878Z,3
2023-03-26T20:14:21.574Z,3
2023-03-26T20:16:05.094Z,3
2023-03-26T20:17:49.037Z,3
2023-03-26T20:19:32.481Z,3
2023-03-26T20:21:16.364Z,2
2023-03-26T20:23:00.049Z,3
2023-03-26T20:24:43.850Z,3
2023-03-26T20:26:27.402Z,2
2023-03-26T20:28:11.153Z,3
2023-03-26T20:29:54.705Z,3
2023-03-26T20:31:38.397Z,3
2023-03-26T20:33:22.257Z,3
2023-03-26T20:35:05.785Z,3
2023-03-26T20:36:49.503Z,3
2023-03-26T20:38:33.220Z,2
2023-03-26T20:40:16.911Z,3
2023-03-26T20:42:00.744Z,2
2023-03-26T20:43:44.307Z,3
2023-03-26T20:45:27.989Z,3
2023-03-26T20:47:11.773Z,3
2023-03-26T20:48:55.404Z,3
2023-03-26T20:50:39.112Z,3
2023-03-26T20:52:22.973Z,76
2023-03-26T20:54:06.676Z,3
2023-03-26T20:55:50.282Z,3
2023-03-26T20:57:33.915Z,3
2023-03-26T20:59:17.602Z,3
2023-03-26T21:02:45.006Z,2
2023-03-26T21:04:28.787Z,3
2023-03-26T21:06:12.420Z,3
2023-03-26T21:07:56.123Z,81
2023-03-26T21:09:39.877Z,81
2023-03-26T21:11:23.505Z,81
2023-03-26T21:13:07.227Z,81
2023-03-26T21:14:51.018Z,79
2023-03-26T21:16:34.632Z,78
2023-03-26T21:18:18.339Z,78
2023-03-26T21:20:02.046Z,2
2023-03-26T21:21:45.742Z,1
2023-03-26T21:23:29.451Z,2
2023-03-26T21:25:13.138Z,1
2023-03-26T21:26:56.896Z,0
2023-03-26T21:28:40.589Z,0
2023-03-26T21:30:24.249Z,1
2023-03-26T21:32:08.010Z,1
2023-03-26T21:33:51.800Z,0
2023-03-26T21:35:35.345Z,0
2023-03-26T21:37:19.053Z,0
2023-03-26T21:39:02.799Z,1
2023-03-26T21:40:46.464Z,1
2023-03-26T21:42:30.153Z,0
2023-03-26T21:44:13.910Z,0
2023-03-26T21:45:57.572Z,1
2023-03-26T21:47:41.255Z,0
2023-03-26T21:49:24.968Z,1
2023-03-26T21:51:08.673Z,1
2023-03-26T21:52:52.359Z,0
2023-03-26T21:54:36.078Z,0
2023-03-26T21:56:19.769Z,1
2023-03-26T21:58:03.490Z,1
2023-03-26T21:59:47.221Z,1
2023-03-26T22:01:30.996Z,1
2023-03-26T22:03:14.641Z,1
2023-03-26T22:04:58.278Z,0
2023-03-26T22:06:41.981Z,0
2023-03-26T22:08:25.686Z,1
2023-03-26T22:10:09.375Z,0
2023-03-26T22:11:53.138Z,1
2023-03-26T22:13:36.775Z,1
2023-03-26T22:15:20.497Z,0
2023-03-26T22:17:04.232Z,0
2023-03-26T22:18:47.893Z,0
2023-03-26T22:20:31.616Z,0
2023-03-26T22:22:15.301Z,1
2023-03-26T22:23:59.038Z,0
2023-03-26T22:25:42.716Z,0
2023-03-26T22:27:26.435Z,0
2023-03-26T22:29:10.208Z,0
2023-03-26T22:30:53.831Z,0
2023-03-26T22:32:37.537Z,0
2023-03-26T22:34:21.231Z,0
2023-03-26T22:36:04.924Z,0
2023-03-26T22:37:48.640Z,0
2023-03-26T22:39:32.345Z,0
2023-03-26T22:41:16.046Z,0
2023-03-26T22:42:59.746Z,0
2023-03-26T22:44:43.433Z,0
2023-03-26T22:46:27.143Z,0
2023-03-26T22:48:10.927Z,0
2023-03-26T22:49:54.542Z,0
2023-03-26T22:51:38.234Z,0
2023-03-26T22:53:21.946Z,1
2023-03-26T22:55:05.660Z,0
2023-03-26T22:56:49.346Z,0
2023-03-26T23:00:16.771Z,0
2023-03-26T23:02:00.462Z,0
2023-03-26T23:03:44.150Z,0
2023-03-26T23:05:27.857Z,0
2023-03-26T23:07:11.563Z,0
2023-03-26T23:08:55.277Z,0
2023-03-26T23:10:38.937Z,0
2023-03-26T23:12:22.669Z,0
2023-03-26T23:14:06.364Z,1
2023-03-26T23:15:50.095Z,0
2023-03-26T23:17:33.763Z,0
2023-03-26T23:19:17.522Z,0
2023-03-26T23:21:01.180Z,0
2023-03-26T23:22:44.871Z,0
2023-03-26T23:24:28.567Z,0
2023-03-26T23:26:12.252Z,0
2023-03-26T23:27:55.971Z,0
2023-03-26T23:29:39.703Z,0
2023-03-26T23:31:23.362Z,0
2023-03-26T23:33:07.053Z,0
2023-03-26T23:34:50.768Z,0
2023-03-26T23:36:34.512Z,0
2023-03-26T23:38:18.165Z,0
2023-03-26T23:40:01.890Z,0
2023-03-26T23:41:45.589Z,0
2023-03-26T23:43:29.280Z,0
2023-03-26T23:45:12.984Z,0
2023-03-26T23:46:56.697Z,0
2023-03-26T23:48:40.392Z,0
2023-03-26T23:50:24.113Z,0
2023-03-26T23:52:07.799Z,0
2023-03-26T23:53:51.515Z,0
2023-03-26T23:55:35.198Z,0
2023-03-26T23:57:18.896Z,0
2023-03-26T23:59:09.374Z,0
